Time;durP1;ratioP1;P1;durP2;ratioP2;P2;SDS_P1;SDS_P2;PMS_P1;PMS_P2;Temp;Humidity;BMP_temperature;BMP_pressure;BME280_temperature;BME280_humidity;BME280_pressure;Samples;Min_cycle;Max_cycle;Signal;HPM_P1;HPM_P2
2023/03/09 00:02:13;;;;;;;34.93;18.97;;;4.20;99.90;;;;;;5078107;28;20497;-73
2023/03/09 00:04:41;;;;;;;38.30;19.50;;;4.20;99.90;;;;;;5070794;28;20664;-72
2023/03/09 00:07:07;;;;;;;37.10;18.97;;;4.30;99.90;;;;;;5070339;28;20452;-72
2023/03/09 00:09:36;;;;;;;37.70;19.20;;;4.30;99.90;;;;;;5070228;28;20766;-72
2023/03/09 00:12:02;;;;;;;34.97;19.03;;;4.30;99.90;;;;;;5074767;28;20529;-72
2023/03/09 00:14:29;;;;;;;35.33;18.83;;;4.40;99.90;;;;;;5070749;28;20471;-72
2023/03/09 00:16:56;;;;;;;38.00;19.00;;;4.40;99.90;;;;;;5070636;28;20874;-72
2023/03/09 00:19:26;;;;;;;33.33;17.43;;;4.30;99.90;;;;;;5070137;28;20479;-73
2023/03/09 00:21:54;;;;;;;33.37;18.33;;;4.20;99.90;;;;;;5070343;28;20510;-72
2023/03/09 00:24:24;;;;;;;38.83;18.60;;;4.10;99.90;;;;;;5078766;28;20610;-72
2023/03/09 00:26:54;;;;;;;36.20;18.83;;;3.90;99.90;;;;;;5070262;28;20467;-72
2023/03/09 00:29:20;;;;;;;35.20;18.30;;;3.80;99.90;;;;;;5069225;28;20448;-72
2023/03/09 00:31:47;;;;;;;35.83;18.50;;;3.80;99.90;;;;;;5070704;28;20449;-72
2023/03/09 00:34:15;;;;;;;34.20;18.30;;;3.70;99.90;;;;;;5069803;28;20479;-72
2023/03/09 00:36:42;;;;;;;40.07;18.40;;;3.60;99.90;;;;;;5070363;28;20451;-71
2023/03/09 00:39:11;;;;;;;38.37;19.00;;;3.50;99.90;;;;;;5034303;28;1031874;-72
2023/03/09 00:41:38;;;;;;;36.00;17.53;;;3.40;99.90;;;;;;5074793;28;20205;-72
2023/03/09 00:44:06;;;;;;;38.53;18.20;;;3.30;99.90;;;;;;5073488;28;20524;-72
2023/03/09 00:46:34;;;;;;;39.67;18.47;;;3.30;99.90;;;;;;5082833;28;20476;-72
2023/03/09 00:49:02;;;;;;;36.93;17.60;;;3.20;99.90;;;;;;5071209;28;20515;-72
2023/03/09 00:51:28;;;;;;;33.57;16.80;;;3.20;99.90;;;;;;5080742;28;20549;-72
2023/03/09 00:53:55;;;;;;;31.23;15.80;;;3.20;99.90;;;;;;5071164;28;20604;-72
2023/03/09 00:56:25;;;;;;;31.67;16.80;;;3.20;99.90;;;;;;5070647;28;21093;-72
2023/03/09 00:58:52;;;;;;;29.57;15.57;;;3.20;99.90;;;;;;5070445;28;20460;-72
2023/03/09 01:01:21;;;;;;;31.00;15.00;;;3.20;99.90;;;;;;5072629;28;20464;-72
2023/03/09 01:03:48;;;;;;;28.63;15.60;;;3.20;99.90;;;;;;5075919;28;20474;-72
2023/03/09 01:06:15;;;;;;;28.50;15.13;;;3.30;99.90;;;;;;5070757;28;20454;-73
2023/03/09 01:08:42;;;;;;;27.17;14.90;;;3.30;99.90;;;;;;5070658;28;20451;-72
2023/03/09 01:11:11;;;;;;;29.07;14.90;;;3.30;99.90;;;;;;5070894;28;20474;-72
2023/03/09 01:13:38;;;;;;;24.27;13.77;;;3.30;99.90;;;;;;5070500;28;20523;-72
2023/03/09 01:16:05;;;;;;;23.57;13.67;;;3.30;99.90;;;;;;5079281;28;20461;-72
2023/03/09 01:18:34;;;;;;;25.03;13.40;;;3.30;99.90;;;;;;5070769;28;20504;-72
2023/03/09 01:21:01;;;;;;;25.60;13.30;;;3.30;99.90;;;;;;5070719;28;20489;-72
2023/03/09 01:23:28;;;;;;;24.30;13.30;;;3.40;99.90;;;;;;5077534;28;20468;-72
2023/03/09 01:25:54;;;;;;;23.60;13.07;;;3.30;99.90;;;;;;5079139;28;20464;-72
2023/03/09 01:28:21;;;;;;;24.00;12.60;;;3.40;99.90;;;;;;5070565;28;20451;-72
2023/03/09 01:30:48;;;;;;;24.77;13.20;;;3.40;99.90;;;;;;5070489;28;20442;-72
2023/03/09 01:33:14;;;;;;;21.70;12.67;;;3.40;99.90;;;;;;5070379;28;20469;-71
2023/03/09 01:35:42;;;;;;;20.07;12.37;;;3.50;99.90;;;;;;5070620;28;20440;-71
2023/03/09 01:38:09;;;;;;;21.53;13.17;;;3.50;99.90;;;;;;5073431;28;20473;-71
2023/03/09 01:40:36;;;;;;;19.20;11.50;;;3.50;99.90;;;;;;5073238;28;20910;-71
2023/03/09 01:43:34;;;;;;;20.10;11.90;;;3.60;99.90;;;;;;5073893;28;20456;-71
2023/03/09 01:46:26;;;;;;;24.20;12.80;;;3.60;99.90;;;;;;5087106;28;20455;-72
2023/03/09 01:48:57;;;;;;;21.20;12.30;;;3.60;99.90;;;;;;5073489;28;20498;-71
2023/03/09 01:51:29;;;;;;;18.60;11.67;;;3.60;99.90;;;;;;5079161;28;20538;-71
2023/03/09 01:53:59;;;;;;;19.17;11.60;;;3.60;99.90;;;;;;5073900;28;20468;-71
2023/03/09 01:56:26;;;;;;;19.57;11.80;;;3.60;99.90;;;;;;5073795;28;20494;-71
2023/03/09 01:58:54;;;;;;;17.43;11.03;;;3.60;99.90;;;;;;5073769;28;20659;-72
2023/03/09 02:01:22;;;;;;;17.60;10.50;;;3.70;99.90;;;;;;5084023;28;21090;-71
2023/03/09 02:03:53;;;;;;;16.87;10.40;;;3.70;99.90;;;;;;5079011;28;20471;-71
2023/03/09 02:06:22;;;;;;;16.17;10.60;;;3.70;99.90;;;;;;5080906;28;20872;-72
2023/03/09 02:08:58;;;;;;;16.70;10.63;;;3.70;99.90;;;;;;5073629;28;20874;-72
2023/03/09 02:11:25;;;;;;;23.33;11.60;;;3.80;99.90;;;;;;5076101;28;20456;-71
2023/03/09 02:13:53;;;;;;;22.47;12.67;;;3.80;99.90;;;;;;5081579;28;20541;-73
2023/03/09 02:16:20;;;;;;;22.80;13.27;;;3.80;99.90;;;;;;5073754;28;20452;-72
2023/03/09 02:18:47;;;;;;;24.13;13.13;;;3.80;99.90;;;;;;5073658;28;20448;-71
2023/03/09 02:21:23;;;;;;;23.80;12.30;;;3.90;99.90;;;;;;5073090;28;21015;-72
2023/03/09 02:24:01;;;;;;;20.90;12.30;;;3.90;99.90;;;;;;5085923;28;20477;-71
2023/03/09 02:26:32;;;;;;;23.30;12.50;;;3.90;99.90;;;;;;5076705;28;20454;-71
2023/03/09 02:29:00;;;;;;;24.47;13.17;;;3.90;99.90;;;;;;5077378;28;20459;-71
2023/03/09 02:31:27;;;;;;;23.03;12.60;;;3.90;99.90;;;;;;5079770;28;20498;-71
2023/03/09 02:33:54;;;;;;;23.50;13.50;;;3.90;99.90;;;;;;5073049;28;20476;-71
2023/03/09 02:36:21;;;;;;;19.53;12.37;;;3.90;99.90;;;;;;5072866;28;20453;-72
2023/03/09 02:38:48;;;;;;;20.00;11.27;;;3.90;99.90;;;;;;5078704;28;20469;-71
2023/03/09 02:41:14;;;;;;;19.23;12.30;;;3.90;99.90;;;;;;5072748;28;21053;-71
2023/03/09 02:43:45;;;;;;;19.20;11.67;;;3.90;99.90;;;;;;5075331;28;20513;-71
2023/03/09 02:46:13;;;;;;;20.73;11.80;;;3.80;99.90;;;;;;5089570;28;20453;-71
2023/03/09 02:48:40;;;;;;;20.03;11.27;;;3.80;99.90;;;;;;5073034;28;20459;-71
2023/03/09 02:51:06;;;;;;;22.60;11.97;;;3.80;99.90;;;;;;5076391;28;20490;-71
2023/03/09 02:53:33;;;;;;;21.33;12.33;;;3.80;99.90;;;;;;5077758;28;20483;-71
2023/03/09 02:56:00;;;;;;;20.40;12.37;;;3.80;99.90;;;;;;5072753;28;20948;-71
2023/03/09 02:58:27;;;;;;;23.40;11.83;;;3.70;99.90;;;;;;5080782;28;20860;-71
2023/03/09 03:00:54;;;;;;;23.30;12.10;;;3.70;99.90;;;;;;5080992;28;20479;-71
2023/03/09 03:03:22;;;;;;;22.00;11.93;;;3.70;99.90;;;;;;5072869;28;20897;-71
2023/03/09 03:05:49;;;;;;;23.40;11.83;;;3.80;99.90;;;;;;5072841;28;20508;-72
2023/03/09 03:08:15;;;;;;;22.00;12.13;;;3.80;99.90;;;;;;5073471;28;20463;-72
2023/03/09 03:10:42;;;;;;;17.90;10.40;;;3.80;99.90;;;;;;5072504;28;20506;-71
2023/03/09 03:13:09;;;;;;;20.30;10.37;;;3.90;99.90;;;;;;5072096;28;20512;-71
2023/03/09 03:15:36;;;;;;;22.27;12.27;;;3.90;99.90;;;;;;5080866;28;20457;-72
2023/03/09 03:18:02;;;;;;;21.53;11.13;;;3.90;99.90;;;;;;5076489;28;20464;-72
2023/03/09 03:20:30;;;;;;;18.80;10.90;;;3.90;99.90;;;;;;5072473;28;20492;-72
2023/03/09 03:22:57;;;;;;;19.30;11.37;;;3.90;99.90;;;;;;5072442;28;20790;-72
2023/03/09 03:25:23;;;;;;;24.13;11.53;;;3.90;99.90;;;;;;5072630;28;20498;-72
2023/03/09 03:27:50;;;;;;;17.47;10.73;;;4.00;99.90;;;;;;5071585;28;20448;-72
2023/03/09 03:30:17;;;;;;;19.97;11.63;;;3.90;99.90;;;;;;5071643;28;20504;-72
2023/03/09 03:32:44;;;;;;;16.53;11.30;;;4.00;99.90;;;;;;5076524;28;20869;-72
2023/03/09 03:35:11;;;;;;;20.27;11.00;;;4.00;99.90;;;;;;5074782;28;20525;-72
2023/03/09 03:37:39;;;;;;;22.27;11.57;;;4.00;99.90;;;;;;5071930;28;20457;-72
2023/03/09 03:40:08;;;;;;;23.57;10.90;;;4.10;99.90;;;;;;5071445;28;20484;-72
2023/03/09 03:42:35;;;;;;;30.10;12.83;;;4.10;99.90;;;;;;5071591;28;20447;-71
2023/03/09 03:45:02;;;;;;;20.03;11.60;;;4.20;99.90;;;;;;5072259;28;20472;-72
2023/03/09 03:47:28;;;;;;;22.73;12.90;;;4.10;99.90;;;;;;5071876;28;20537;-72
2023/03/09 03:49:55;;;;;;;20.10;11.10;;;4.20;99.90;;;;;;5071441;28;20943;-72
2023/03/09 03:52:23;;;;;;;19.13;11.73;;;4.20;99.90;;;;;;5080039;28;20474;-72
2023/03/09 03:54:51;;;;;;;22.30;12.50;;;4.20;99.90;;;;;;5075721;28;21054;-72
2023/03/09 03:57:18;;;;;;;19.20;11.30;;;4.20;99.90;;;;;;5071362;28;20449;-72
2023/03/09 03:59:44;;;;;;;21.93;12.73;;;4.30;99.90;;;;;;5071462;28;20858;-72
2023/03/09 04:02:11;;;;;;;20.97;11.70;;;4.30;99.90;;;;;;5072094;28;20491;-72
2023/03/09 04:04:38;;;;;;;17.10;10.50;;;4.40;99.90;;;;;;5071448;28;20468;-72
2023/03/09 04:07:04;;;;;;;21.70;11.47;;;4.50;99.90;;;;;;5079935;28;20452;-72
2023/03/09 04:09:31;;;;;;;15.77;9.27;;;4.50;99.90;;;;;;5085639;28;20952;-72
2023/03/09 04:11:59;;;;;;;12.50;7.30;;;4.60;99.90;;;;;;5071403;28;21203;-72
2023/03/09 04:14:26;;;;;;;8.40;5.53;;;4.80;99.90;;;;;;5078718;28;21003;-71
2023/03/09 04:16:53;;;;;;;6.63;5.13;;;5.20;99.90;;;;;;5071540;28;20454;-71
2023/03/09 04:19:20;;;;;;;7.63;5.20;;;5.60;99.90;;;;;;5071002;28;20448;-71
2023/03/09 04:21:47;;;;;;;6.33;4.60;;;5.90;99.90;;;;;;5071390;28;20486;-71
2023/03/09 04:24:13;;;;;;;8.63;4.93;;;6.30;99.90;;;;;;5072680;28;20479;-71
2023/03/09 04:26:40;;;;;;;7.10;5.13;;;6.60;99.90;;;;;;5078546;28;20454;-71
2023/03/09 04:29:08;;;;;;;5.87;5.03;;;6.70;99.90;;;;;;5071129;28;20454;-72
2023/03/09 04:31:35;;;;;;;4.93;4.43;;;6.80;99.90;;;;;;5071181;28;20495;-72
2023/03/09 04:34:02;;;;;;;6.77;5.43;;;6.90;99.90;;;;;;5071026;28;20540;-72
2023/03/09 04:36:28;;;;;;;7.27;5.50;;;7.00;99.90;;;;;;5070796;28;21093;-72
2023/03/09 04:38:55;;;;;;;6.80;4.80;;;7.00;99.90;;;;;;5071112;28;20467;-72
2023/03/09 04:41:21;;;;;;;6.87;4.87;;;7.00;99.90;;;;;;5071237;28;20909;-72
2023/03/09 04:43:48;;;;;;;4.87;4.37;;;7.10;99.90;;;;;;5074943;28;20474;-72
2023/03/09 04:46:16;;;;;;;8.40;4.60;;;7.20;99.90;;;;;;5088946;28;20508;-72
2023/03/09 04:48:42;;;;;;;4.43;4.03;;;7.10;99.90;;;;;;5070775;28;20946;-71
2023/03/09 04:51:09;;;;;;;4.27;3.87;;;7.20;99.90;;;;;;5076312;28;20456;-71
2023/03/09 04:53:36;;;;;;;10.00;4.80;;;7.20;99.90;;;;;;5074365;28;20472;-72
2023/03/09 04:56:02;;;;;;;4.90;3.60;;;7.20;99.90;;;;;;5082899;28;20517;-71
2023/03/09 04:58:29;;;;;;;4.03;3.63;;;7.20;99.90;;;;;;5080307;28;20454;-72
2023/03/09 05:00:55;;;;;;;5.03;4.00;;;7.30;99.90;;;;;;5070562;28;20545;-72
2023/03/09 05:03:24;;;;;;;4.17;3.77;;;7.30;99.90;;;;;;5071659;28;20517;-72
2023/03/09 05:05:50;;;;;;;3.80;3.50;;;7.30;99.90;;;;;;5072059;28;20467;-72
2023/03/09 05:08:17;;;;;;;4.90;3.73;;;7.30;99.90;;;;;;5070935;28;20455;-72
2023/03/09 05:10:43;;;;;;;4.00;3.30;;;7.30;99.90;;;;;;5070658;28;20447;-72
2023/03/09 05:13:10;;;;;;;3.50;3.20;;;7.30;99.90;;;;;;5074807;28;20488;-72
2023/03/09 05:15:39;;;;;;;3.87;3.50;;;7.40;99.90;;;;;;5080409;28;20512;-71
2023/03/09 05:18:06;;;;;;;5.20;3.37;;;7.40;99.90;;;;;;5079368;28;20461;-71
2023/03/09 05:20:34;;;;;;;3.50;2.77;;;7.40;99.90;;;;;;5074757;28;20455;-71
2023/03/09 05:23:02;;;;;;;3.40;3.10;;;7.50;99.90;;;;;;5074662;28;20951;-72
2023/03/09 05:25:29;;;;;;;2.73;2.53;;;7.60;99.90;;;;;;5076383;28;20469;-71
2023/03/09 05:27:56;;;;;;;4.53;2.80;;;7.60;99.90;;;;;;5073754;28;20453;-71
2023/03/09 05:30:23;;;;;;;3.43;2.97;;;7.60;99.90;;;;;;5074078;28;20462;-71
2023/03/09 05:32:50;;;;;;;3.50;3.20;;;7.60;99.90;;;;;;5079074;28;20513;-72
2023/03/09 05:35:17;;;;;;;3.40;2.80;;;7.60;99.90;;;;;;5077423;28;20528;-71
2023/03/09 05:37:45;;;;;;;3.73;2.90;;;7.60;99.90;;;;;;5077883;28;20440;-72
2023/03/09 05:40:12;;;;;;;3.07;2.77;;;7.60;99.90;;;;;;5077740;28;21010;-72
2023/03/09 05:42:39;;;;;;;3.70;2.53;;;7.60;99.90;;;;;;5073885;28;20483;-71
2023/03/09 05:45:08;;;;;;;3.63;2.97;;;7.60;99.90;;;;;;5087938;28;20959;-72
2023/03/09 05:47:35;;;;;;;2.90;2.70;;;7.60;99.90;;;;;;5088316;28;20468;-72
2023/03/09 05:50:02;;;;;;;4.13;3.07;;;7.60;99.90;;;;;;5073783;28;20506;-71
2023/03/09 05:52:28;;;;;;;3.47;3.27;;;7.60;99.90;;;;;;5073883;28;20445;-71
2023/03/09 05:54:56;;;;;;;3.57;3.27;;;7.60;99.90;;;;;;5073597;28;21014;-72
2023/03/09 05:57:23;;;;;;;4.17;3.10;;;7.60;99.90;;;;;;5073616;28;21078;-72
2023/03/09 05:59:50;;;;;;;3.33;3.10;;;7.50;99.90;;;;;;5073457;28;20939;-71
2023/03/09 06:02:16;;;;;;;3.43;3.23;;;7.50;99.90;;;;;;5081379;28;20544;-72
2023/03/09 06:04:43;;;;;;;3.37;3.07;;;7.50;99.90;;;;;;5073457;28;20476;-72
2023/03/09 06:07:10;;;;;;;3.43;3.03;;;7.50;99.90;;;;;;5073933;28;20517;-71
2023/03/09 06:09:36;;;;;;;3.20;2.90;;;7.50;99.90;;;;;;5072831;28;20457;-73
2023/03/09 06:12:05;;;;;;;5.60;3.30;;;7.50;99.90;;;;;;5073529;28;20520;-73
2023/03/09 06:14:32;;;;;;;6.03;3.27;;;7.50;99.90;;;;;;5073553;28;20471;-73
2023/03/09 06:16:59;;;;;;;3.40;3.20;;;7.50;99.90;;;;;;5073145;28;20880;-73
2023/03/09 06:19:26;;;;;;;3.10;2.90;;;7.40;99.90;;;;;;5076508;28;20457;-73
2023/03/09 06:21:53;;;;;;;3.87;3.20;;;7.40;99.90;;;;;;5078112;28;20530;-73
2023/03/09 06:24:19;;;;;;;3.50;3.23;;;7.40;99.90;;;;;;5077650;28;20512;-75
2023/03/09 06:26:46;;;;;;;4.20;3.20;;;7.40;99.90;;;;;;5076869;28;20463;-74
2023/03/09 06:29:14;;;;;;;3.43;3.00;;;7.40;99.90;;;;;;5077936;28;20458;-74
2023/03/09 06:31:41;;;;;;;3.97;2.93;;;7.40;99.90;;;;;;5076294;28;20456;-74
2023/03/09 06:34:07;;;;;;;5.87;2.77;;;7.40;99.90;;;;;;5073130;28;20630;-74
2023/03/09 06:36:34;;;;;;;3.30;2.80;;;7.40;99.90;;;;;;5071208;28;20456;-74
2023/03/09 06:39:01;;;;;;;5.10;2.73;;;7.40;99.90;;;;;;5071798;28;20535;-74
2023/03/09 06:41:31;;;;;;;8.00;2.80;;;7.40;99.90;;;;;;5080825;28;20492;-74
2023/03/09 06:43:58;;;;;;;2.60;2.37;;;7.50;99.90;;;;;;5072756;28;20491;-74
2023/03/09 06:46:26;;;;;;;5.47;2.40;;;7.60;99.90;;;;;;5072803;28;20459;-74
2023/03/09 06:48:53;;;;;;;2.70;2.50;;;7.60;99.90;;;;;;5072919;28;20482;-74
2023/03/09 06:51:20;;;;;;;5.60;2.33;;;7.60;99.90;;;;;;5072506;28;20456;-74
2023/03/09 06:53:47;;;;;;;2.77;2.40;;;7.60;99.90;;;;;;5072662;28;20899;-74
2023/03/09 06:56:13;;;;;;;5.47;2.37;;;7.60;99.90;;;;;;5072325;28;20451;-74
2023/03/09 06:58:40;;;;;;;3.20;1.90;;;7.70;99.90;;;;;;5072579;28;20452;-74
2023/03/09 07:01:08;;;;;;;6.70;2.30;;;7.70;99.90;;;;;;5072773;28;20515;-74
2023/03/09 07:03:36;;;;;;;8.93;2.30;;;7.80;99.90;;;;;;5073407;28;20530;-74
2023/03/09 07:06:03;;;;;;;10.20;2.53;;;7.80;99.90;;;;;;5072369;28;20929;-74
2023/03/09 07:08:30;;;;;;;7.93;2.50;;;7.90;99.90;;;;;;5080540;28;20460;-74
2023/03/09 07:10:56;;;;;;;12.27;1.97;;;7.90;99.90;;;;;;5071838;28;20500;-74
2023/03/09 07:13:23;;;;;;;4.77;2.30;;;8.00;99.90;;;;;;5072271;28;20475;-74
2023/03/09 07:15:50;;;;;;;4.17;2.13;;;8.10;99.90;;;;;;5080834;28;20858;-74
2023/03/09 07:18:17;;;;;;;11.33;2.50;;;8.10;99.90;;;;;;5072165;28;20875;-74
2023/03/09 07:20:45;;;;;;;8.33;1.97;;;8.10;99.90;;;;;;5072114;28;20591;-74
2023/03/09 07:23:12;;;;;;;8.67;2.30;;;8.10;99.90;;;;;;5073963;28;20820;-74
2023/03/09 07:25:39;;;;;;;12.27;2.30;;;8.10;99.90;;;;;;5073335;28;20529;-73
2023/03/09 07:28:08;;;;;;;8.20;2.30;;;8.10;99.90;;;;;;5072224;28;20451;-74
2023/03/09 07:30:36;;;;;;;8.20;2.20;;;8.10;99.90;;;;;;5071702;28;20481;-74
2023/03/09 07:33:03;;;;;;;9.50;2.20;;;8.10;99.90;;;;;;5071941;28;20449;-74
2023/03/09 07:35:30;;;;;;;8.63;2.43;;;8.10;99.90;;;;;;5071848;28;20460;-74
2023/03/09 07:37:58;;;;;;;6.13;2.37;;;8.10;99.90;;;;;;5070983;28;20459;-74
2023/03/09 07:40:24;;;;;;;3.50;1.90;;;8.10;99.90;;;;;;5071771;28;20451;-74
2023/03/09 07:42:52;;;;;;;3.43;2.00;;;8.10;99.90;;;;;;5071327;28;20483;-74
2023/03/09 07:45:19;;;;;;;6.40;2.10;;;8.10;99.90;;;;;;5072686;28;20465;-74
2023/03/09 07:47:46;;;;;;;11.50;3.23;;;8.10;99.90;;;;;;5087963;28;20937;-74
2023/03/09 07:50:12;;;;;;;8.13;3.20;;;8.20;99.90;;;;;;5071728;28;20483;-74
2023/03/09 07:52:39;;;;;;;4.57;1.87;;;8.20;99.90;;;;;;5071612;28;20799;-74
2023/03/09 07:55:10;;;;;;;8.73;1.93;;;8.30;99.90;;;;;;5071639;28;20479;-74
2023/03/09 07:57:36;;;;;;;5.03;1.90;;;8.30;99.90;;;;;;5071564;28;20460;-74
2023/03/09 08:00:07;;;;;;;10.90;2.83;;;8.40;99.90;;;;;;5071254;28;20928;-74
2023/03/09 08:02:33;;;;;;;7.37;2.20;;;8.50;99.90;;;;;;5076991;28;20484;-74
2023/03/09 08:05:00;;;;;;;3.13;2.03;;;8.60;99.90;;;;;;5071694;28;20480;-74
2023/03/09 08:07:26;;;;;;;3.30;2.30;;;8.70;99.90;;;;;;5071280;28;20457;-74
2023/03/09 08:09:53;;;;;;;4.20;1.90;;;8.80;99.90;;;;;;5071341;28;20935;-74
2023/03/09 08:12:21;;;;;;;4.60;1.90;;;8.90;99.90;;;;;;5071402;28;20497;-74
2023/03/09 08:14:48;;;;;;;9.77;2.00;;;8.90;99.90;;;;;;5075159;28;20479;-74
2023/03/09 08:17:14;;;;;;;3.70;1.67;;;9.00;99.90;;;;;;5075683;28;20458;-74
2023/03/09 08:19:41;;;;;;;6.93;2.33;;;9.10;99.90;;;;;;5079451;28;20456;-73
2023/03/09 08:22:08;;;;;;;11.13;2.80;;;9.10;99.90;;;;;;5071239;28;20480;-73
2023/03/09 08:24:34;;;;;;;4.10;2.30;;;9.20;99.90;;;;;;5075693;28;20484;-73
2023/03/09 08:27:01;;;;;;;3.10;1.93;;;9.30;99.90;;;;;;5071245;28;20449;-74
2023/03/09 08:29:29;;;;;;;6.70;1.97;;;9.40;99.90;;;;;;5071813;28;20498;-74
2023/03/09 08:31:56;;;;;;;4.13;2.10;;;9.40;99.90;;;;;;5078195;28;20460;-74
2023/03/09 08:34:23;;;;;;;4.07;1.50;;;9.40;99.90;;;;;;5071188;28;20469;-75
2023/03/09 08:36:49;;;;;;;3.00;1.80;;;9.50;99.90;;;;;;5071322;28;20449;-74
2023/03/09 08:39:16;;;;;;;3.00;1.60;;;9.60;99.90;;;;;;5070857;28;20460;-74
2023/03/09 08:41:42;;;;;;;4.33;2.17;;;9.70;99.90;;;;;;5070851;28;20550;-74
2023/03/09 08:44:09;;;;;;;5.13;1.70;;;9.70;99.90;;;;;;5071053;28;20475;-74
2023/03/09 08:46:37;;;;;;;4.40;1.73;;;10.00;99.90;;;;;;5072782;28;20506;-74
2023/03/09 08:49:04;;;;;;;1.83;1.53;;;10.10;99.90;;;;;;5071789;28;20511;-74
2023/03/09 08:51:30;;;;;;;4.53;1.60;;;10.10;99.90;;;;;;5075022;28;20924;-75
2023/03/09 08:53:57;;;;;;;3.20;1.60;;;10.10;99.90;;;;;;5074890;28;20472;-74
2023/03/09 08:56:24;;;;;;;2.60;1.60;;;10.10;99.90;;;;;;5074745;28;20461;-75
2023/03/09 08:58:50;;;;;;;1.60;1.50;;;10.10;99.90;;;;;;5074716;28;20892;-75
2023/03/09 09:01:17;;;;;;;3.40;1.67;;;10.00;99.90;;;;;;5076612;28;20448;-74
2023/03/09 09:03:45;;;;;;;3.50;1.83;;;10.00;99.90;;;;;;5074985;28;20500;-74
2023/03/09 09:06:14;;;;;;;4.20;1.80;;;9.90;99.90;;;;;;5074998;28;20507;-75
2023/03/09 09:08:41;;;;;;;2.03;1.60;;;9.80;99.90;;;;;;5074347;28;20453;-75
2023/03/09 09:11:08;;;;;;;1.50;1.40;;;9.80;99.90;;;;;;5083281;28;20801;-75
2023/03/09 09:13:36;;;;;;;2.80;1.50;;;9.80;99.90;;;;;;5074588;28;20545;-75
2023/03/09 09:16:05;;;;;;;1.50;1.40;;;9.90;99.90;;;;;;5074658;28;20952;-75
2023/03/09 09:18:32;;;;;;;1.40;1.30;;;9.90;99.90;;;;;;5074445;28;20483;-74
2023/03/09 09:21:03;;;;;;;1.37;1.27;;;9.90;99.90;;;;;;5074308;28;20448;-74
2023/03/09 09:23:30;;;;;;;3.77;1.60;;;9.90;99.90;;;;;;5079283;28;20491;-75
2023/03/09 09:25:57;;;;;;;1.70;1.33;;;9.80;99.90;;;;;;5074637;28;20470;-75
2023/03/09 09:28:24;;;;;;;2.60;1.50;;;9.70;99.90;;;;;;5074450;28;20445;-75
2023/03/09 09:30:54;;;;;;;5.13;1.57;;;9.70;99.90;;;;;;5074226;28;20926;-75
2023/03/09 09:33:21;;;;;;;1.83;1.40;;;9.70;99.90;;;;;;5074250;28;20470;-75
2023/03/09 09:35:56;;;;;;;4.83;1.60;;;9.70;99.90;;;;;;5073887;28;20482;-75
2023/03/09 09:38:24;;;;;;;2.60;1.70;;;9.80;99.90;;;;;;5074404;28;20455;-75
2023/03/09 09:40:51;;;;;;;6.20;1.50;;;9.80;99.90;;;;;;5074065;28;20479;-75
2023/03/09 09:43:18;;;;;;;2.93;1.40;;;9.80;99.90;;;;;;5073357;28;20488;-75
2023/03/09 09:45:46;;;;;;;1.50;1.40;;;9.80;99.90;;;;;;5076192;28;20460;-75
2023/03/09 09:48:17;;;;;;;1.90;1.30;;;9.90;99.90;;;;;;5074220;28;20454;-75
2023/03/09 09:51:03;;;;;;;2.33;1.60;;;9.90;99.90;;;;;;5073851;28;20448;-74
2023/03/09 09:53:38;;;;;;;1.60;1.50;;;9.90;99.90;;;;;;5073707;28;20890;-75
2023/03/09 09:56:10;;;;;;;3.67;1.60;;;10.00;99.90;;;;;;5073815;28;20450;-75
2023/03/09 09:58:44;;;;;;;1.83;1.60;;;10.00;99.90;;;;;;5073764;28;20510;-75
2023/03/09 10:01:19;;;;;;;2.07;1.50;;;10.00;99.90;;;;;;5074438;28;20511;-75
2023/03/09 10:03:50;;;;;;;4.20;2.13;;;10.00;99.90;;;;;;5082442;28;20772;-75
2023/03/09 10:06:20;;;;;;;3.73;1.53;;;10.10;99.90;;;;;;5073783;28;20946;-75
2023/03/09 10:08:50;;;;;;;2.57;1.90;;;10.20;99.90;;;;;;5073162;28;20543;-75
2023/03/09 10:11:23;;;;;;;1.83;1.40;;;10.10;99.90;;;;;;5073956;28;20464;-75
2023/03/09 10:13:54;;;;;;;2.97;1.57;;;10.10;99.90;;;;;;5076627;28;20520;-75
2023/03/09 10:16:26;;;;;;;2.23;1.90;;;10.10;99.90;;;;;;5078010;28;20459;-75
2023/03/09 10:18:56;;;;;;;3.67;1.70;;;10.20;99.90;;;;;;5073294;28;20450;-75
2023/03/09 10:21:27;;;;;;;2.40;1.80;;;10.40;99.90;;;;;;5073589;28;20500;-75
2023/03/09 10:23:57;;;;;;;1.57;1.30;;;10.50;99.90;;;;;;5079182;28;21023;-75
2023/03/09 10:26:36;;;;;;;2.20;1.60;;;10.60;99.90;;;;;;5073334;28;20826;-75
2023/03/09 10:29:10;;;;;;;2.37;1.43;;;10.60;99.90;;;;;;5073324;28;20453;-75
2023/03/09 10:31:42;;;;;;;4.73;1.80;;;10.60;99.90;;;;;;5074069;28;20925;-75
2023/03/09 10:34:16;;;;;;;2.30;1.57;;;10.50;99.90;;;;;;5085017;28;20461;-75
2023/03/09 10:36:53;;;;;;;1.73;1.20;;;10.50;99.90;;;;;;5074494;28;20455;-75
2023/03/09 10:39:22;;;;;;;2.83;1.40;;;10.50;99.90;;;;;;5072763;28;20551;-75
2023/03/09 10:41:48;;;;;;;1.50;1.40;;;10.60;99.90;;;;;;5072380;28;20506;-75
2023/03/09 10:44:19;;;;;;;3.30;1.37;;;10.70;99.90;;;;;;5079487;28;20911;-75
2023/03/09 10:46:57;;;;;;;1.80;1.30;;;10.70;99.90;;;;;;5073082;28;20531;-75
2023/03/09 10:49:24;;;;;;;3.43;1.30;;;10.80;99.90;;;;;;5072659;28;20466;-75
2023/03/09 10:52:00;;;;;;;2.67;1.43;;;10.70;99.90;;;;;;5072675;28;20451;-75
2023/03/09 10:54:33;;;;;;;3.63;1.60;;;10.90;99.90;;;;;;5081269;28;20473;-75
2023/03/09 10:57:00;;;;;;;2.80;1.30;;;11.00;99.90;;;;;;5073016;28;20458;-75
2023/03/09 10:59:29;;;;;;;2.50;2.30;;;11.00;99.90;;;;;;5072517;28;20529;-75
2023/03/09 11:01:59;;;;;;;1.77;1.23;;;11.00;99.90;;;;;;5076139;28;20825;-75
2023/03/09 11:04:34;;;;;;;4.87;1.67;;;11.00;99.90;;;;;;5072237;28;20501;-75
2023/03/09 11:07:02;;;;;;;3.40;1.40;;;11.00;99.90;;;;;;5072831;28;20453;-74
2023/03/09 11:09:34;;;;;;;2.13;1.80;;;10.90;99.90;;;;;;5072399;28;20525;-75
2023/03/09 11:12:18;;;;;;;3.27;2.27;;;10.90;99.90;;;;;;5071562;28;20502;-75
2023/03/09 11:14:47;;;;;;;2.73;1.73;;;10.90;99.90;;;;;;5071971;28;20472;-75
2023/03/09 11:17:41;;;;;;;5.90;1.70;;;10.80;99.90;;;;;;5072298;28;20505;-75
2023/03/09 11:20:21;;;;;;;2.33;1.60;;;10.80;99.90;;;;;;5033336;28;20477;-75
2023/03/09 11:22:52;;;;;;;3.93;1.70;;;10.80;99.90;;;;;;5072115;28;20530;-75
2023/03/09 11:25:31;;;;;;;2.87;2.33;;;10.70;99.90;;;;;;5078808;28;20473;-75
2023/03/09 11:28:04;;;;;;;5.40;2.17;;;10.70;99.90;;;;;;5072387;28;20455;-75
2023/03/09 11:30:31;;;;;;;5.73;2.90;;;10.70;99.90;;;;;;5071788;28;20515;-75
2023/03/09 11:32:57;;;;;;;5.33;1.70;;;10.70;99.90;;;;;;5071842;28;20883;-75
2023/03/09 11:35:25;;;;;;;4.20;2.03;;;10.70;99.90;;;;;;5071902;28;20457;-75
2023/03/09 11:37:55;;;;;;;1.80;1.63;;;10.90;99.90;;;;;;5071551;28;20462;-75
2023/03/09 11:40:28;;;;;;;4.03;1.60;;;11.00;99.90;;;;;;5071659;28;20930;-75
2023/03/09 11:43:00;;;;;;;5.60;1.90;;;11.20;99.90;;;;;;5079684;28;20497;-75
2023/03/09 11:45:30;;;;;;;1.50;1.40;;;11.30;99.90;;;;;;5075583;28;20454;-75
2023/03/09 11:47:59;;;;;;;1.67;1.50;;;11.40;99.90;;;;;;5071611;28;20459;-75
2023/03/09 11:50:30;;;;;;;1.40;1.30;;;11.50;99.90;;;;;;5071695;28;20698;-75
2023/03/09 11:53:00;;;;;;;3.87;1.70;;;11.60;99.90;;;;;;5071811;28;20448;-75
2023/03/09 11:55:32;;;;;;;3.53;1.70;;;11.70;99.90;;;;;;5071749;28;20452;-75
2023/03/09 11:58:03;;;;;;;2.70;1.63;;;11.80;99.90;;;;;;5071734;28;20501;-75
2023/03/09 12:00:34;;;;;;;2.20;1.73;;;11.90;99.90;;;;;;5070963;28;20867;-75
2023/03/09 12:03:03;;;;;;;2.60;1.60;;;12.00;99.90;;;;;;5075565;28;20488;-75
2023/03/09 12:05:35;;;;;;;1.70;1.60;;;11.80;99.90;;;;;;5071560;28;20464;-75
2023/03/09 12:08:07;;;;;;;2.67;1.70;;;11.90;99.90;;;;;;5071517;28;20939;-76
2023/03/09 12:10:40;;;;;;;2.27;1.60;;;11.90;99.90;;;;;;5071129;28;20820;-75
2023/03/09 12:13:14;;;;;;;5.87;2.00;;;12.10;99.90;;;;;;5071202;28;20934;-75
2023/03/09 12:15:50;;;;;;;3.37;1.90;;;12.30;99.90;;;;;;5071274;28;20523;-75
2023/03/09 12:18:21;;;;;;;2.80;1.70;;;12.40;99.90;;;;;;5079672;28;20459;-75
2023/03/09 12:20:53;;;;;;;3.80;1.90;;;12.50;99.90;;;;;;5070826;28;20452;-76
2023/03/09 12:23:44;;;;;;;6.73;1.90;;;12.60;99.90;;;;;;5075186;28;20499;-76
2023/03/09 12:26:23;;;;;;;3.20;2.00;;;12.60;99.90;;;;;;5070646;28;20442;-76
2023/03/09 12:28:59;;;;;;;7.03;2.10;;;12.50;99.90;;;;;;5078644;28;21021;-76
2023/03/09 12:31:30;;;;;;;4.73;2.03;;;12.40;99.90;;;;;;5070162;28;20462;-75
2023/03/09 12:34:27;;;;;;;4.60;1.60;;;12.50;99.90;;;;;;5070508;28;20562;-75
2023/03/09 12:36:54;;;;;;;6.03;2.30;;;12.80;99.90;;;;;;5070603;28;20443;-75
2023/03/09 12:39:43;;;;;;;4.40;1.70;;;12.90;99.90;;;;;;5070266;28;20956;-75
2023/03/09 12:42:37;;;;;;;5.93;2.30;;;12.70;99.90;;;;;;5078182;28;20450;-76
2023/03/09 12:45:20;;;;;;;3.67;1.90;;;12.50;99.90;;;;;;5074827;28;20466;-75
2023/03/09 12:47:48;;;;;;;8.20;2.20;;;12.40;99.90;;;;;;5070407;28;20452;-75
2023/03/09 12:50:27;;;;;;;3.77;2.13;;;12.20;99.90;;;;;;5072022;28;20462;-75
2023/03/09 12:53:09;;;;;;;3.60;2.00;;;12.20;99.90;;;;;;5070657;28;21988;-75
2023/03/09 12:55:49;;;;;;;5.30;1.90;;;12.00;99.90;;;;;;5070173;28;20452;-75
2023/03/09 12:58:41;;;;;;;4.73;2.13;;;11.90;99.90;;;;;;5076355;28;20477;-75